Latest Weather Forecast - Monday 10th January 2022(12 Noon)

Forecast Period: 

12 noon 10th January, 2022 to 6 pm 10th January, 2022 

Synopsis:

Weak surface to low-level instability lingers across the islands 

Forecast:
Partly cloudy to cloudy, slightly hazy and breezy with scattered showers

Weather Advisory/Warning:

Discontinued

Winds:

ENE - E at 20 to 35 km/h (12 to 22 mph)

Sea Conditions:

Moderate in open water with swells from (1.5 m to 2.5 m)

Marine Advisory:

Small craft operators and sea bathers should exercise caution for above normal sea swells and occasional gusty winds

Upcoming Tides:
High: 12:05 pm
 Low: 06:14 pm

Aviation WX

[Source: ADDS]
METAR
TVSA 201000Z 07018KT 9999 FEW022 25/20 Q1015 NOSIG =
TVSA 200500Z 2006/2106 07016KT 9999 SCT018
TAF
TVSA 200500Z 2006/2106 07016KT 9999 SCT018 =
SR / SS: 10:31 / 21:59 UTC (Sunrise Sunset 2022-01-20)